Time;durP1;ratioP1;P1;durP2;ratioP2;P2;SDS_P1;SDS_P2;PMS_P1;PMS_P2;Temp;Humidity;BMP_temperature;BMP_pressure;BME280_temperature;BME280_humidity;BME280_pressure;Samples;Min_cycle;Max_cycle;Signal;HPM_P1;HPM_P2
2024/03/02 00:00:09;;;;;;;7.53;4.68;;;11.50;87.00;;;;;;5031115;28;20036;-79
2024/03/02 00:02:45;;;;;;;6.57;4.00;;;11.40;87.00;;;;;;5030919;28;20033;-78
2024/03/02 00:05:13;;;;;;;7.15;4.32;;;11.50;87.00;;;;;;5031043;28;20032;-78
2024/03/02 00:07:42;;;;;;;7.35;4.22;;;11.40;87.00;;;;;;5032264;28;20033;-78
2024/03/02 00:10:10;;;;;;;6.72;4.25;;;11.50;87.00;;;;;;5032129;28;20057;-78
2024/03/02 00:12:36;;;;;;;6.60;4.13;;;11.40;87.00;;;;;;5030766;28;20586;-78
2024/03/02 00:15:19;;;;;;;7.40;4.18;;;11.40;87.00;;;;;;5030918;28;20033;-78
2024/03/02 00:17:45;;;;;;;7.65;4.88;;;11.50;87.00;;;;;;5031882;28;20026;-78
2024/03/02 00:20:17;;;;;;;6.88;4.53;;;11.50;87.10;;;;;;5029870;28;20087;-79
2024/03/02 00:22:42;;;;;;;7.45;4.57;;;11.40;87.00;;;;;;5031700;28;20025;-79
2024/03/02 00:25:10;;;;;;;7.07;4.40;;;11.50;87.10;;;;;;5030722;28;20032;-78
2024/03/02 00:27:35;;;;;;;6.65;4.32;;;11.40;87.00;;;;;;5030384;28;20044;-78
2024/03/02 00:30:06;;;;;;;6.38;4.10;;;11.40;87.00;;;;;;5031836;28;20494;-78
2024/03/02 00:32:32;;;;;;;7.05;4.25;;;11.40;87.00;;;;;;5031724;28;20608;-78
2024/03/02 00:34:57;;;;;;;6.88;4.32;;;11.40;87.00;;;;;;5031615;28;20026;-78
2024/03/02 00:37:34;;;;;;;7.40;4.50;;;11.50;87.10;;;;;;5115829;27;1161635;-76
2024/03/02 00:40:00;;;;;;;6.57;4.25;;;11.50;87.00;;;;;;5128031;28;20031;-76
2024/03/02 00:42:25;;;;;;;7.22;4.57;;;11.50;87.10;;;;;;5127937;28;20440;-77
2024/03/02 00:44:51;;;;;;;7.18;4.60;;;11.50;87.10;;;;;;5129426;28;20031;-76
2024/03/02 00:47:16;;;;;;;6.75;4.18;;;11.40;87.00;;;;;;5128171;28;20035;-76
2024/03/02 00:49:42;;;;;;;7.35;4.35;;;11.50;87.10;;;;;;5127981;27;20030;-76
2024/03/02 00:52:07;;;;;;;6.43;4.05;;;11.50;87.10;;;;;;5127475;28;20035;-76
2024/03/02 00:54:33;;;;;;;7.20;4.53;;;11.40;87.10;;;;;;5127943;28;20471;-77
2024/03/02 00:56:59;;;;;;;7.10;4.03;;;11.50;87.10;;;;;;5127632;28;20027;-77
2024/03/02 00:59:25;;;;;;;6.78;4.07;;;11.40;87.00;;;;;;5128760;27;20019;-76
2024/03/02 01:01:51;;;;;;;6.72;4.22;;;11.40;87.10;;;;;;5126827;28;20047;-76
2024/03/02 01:04:16;;;;;;;7.05;4.40;;;11.50;87.10;;;;;;5126261;28;20045;-76
2024/03/02 01:06:45;;;;;;;7.05;4.45;;;11.40;87.00;;;;;;5125660;28;20551;-76
2024/03/02 01:09:12;;;;;;;6.47;4.18;;;11.50;87.10;;;;;;5125739;27;20031;-75
2024/03/02 01:11:37;;;;;;;6.78;4.15;;;11.50;87.10;;;;;;5125512;28;20027;-78
2024/03/02 01:14:04;;;;;;;6.50;4.50;;;11.50;87.30;;;;;;5125659;28;20221;-76
2024/03/02 01:16:29;;;;;;;6.70;4.28;;;11.50;87.10;;;;;;5126736;27;20060;-76
2024/03/02 01:18:55;;;;;;;6.82;4.18;;;11.50;87.20;;;;;;5127440;27;20019;-76
2024/03/02 01:21:20;;;;;;;6.55;3.70;;;11.40;87.10;;;;;;5127606;28;20368;-76
2024/03/02 01:23:45;;;;;;;7.13;4.22;;;11.50;87.20;;;;;;5127077;28;20372;-76
2024/03/02 01:26:11;;;;;;;6.63;4.00;;;11.50;87.20;;;;;;5128497;28;20036;-76
2024/03/02 01:28:36;;;;;;;7.13;4.47;;;11.40;87.20;;;;;;5127108;27;20054;-77
2024/03/02 01:31:02;;;;;;;7.18;4.63;;;11.40;87.10;;;;;;5127190;28;20049;-76
2024/03/02 01:33:27;;;;;;;6.97;4.47;;;11.50;87.20;;;;;;5128346;28;20042;-76
2024/03/02 01:35:53;;;;;;;6.65;4.18;;;11.50;87.20;;;;;;5126546;28;20034;-76
2024/03/02 01:38:19;;;;;;;7.18;4.10;;;11.40;87.20;;;;;;5126989;27;20089;-76
2024/03/02 01:40:44;;;;;;;7.18;4.63;;;11.50;87.30;;;;;;5128101;27;20041;-76
2024/03/02 01:43:10;;;;;;;6.40;4.30;;;11.40;87.20;;;;;;5128422;28;20110;-77
2024/03/02 01:45:37;;;;;;;7.10;4.47;;;11.40;87.20;;;;;;5126523;28;20024;-77
2024/03/02 01:48:04;;;;;;;6.50;4.30;;;11.50;87.70;;;;;;5118196;28;20112;-76
2024/03/02 01:50:32;;;;;;;6.28;3.95;;;11.40;87.20;;;;;;5114102;28;20027;-76
2024/03/02 01:52:58;;;;;;;6.55;4.05;;;11.50;87.20;;;;;;5112918;28;20034;-77
2024/03/02 01:55:23;;;;;;;6.53;3.88;;;11.40;87.20;;;;;;5112802;28;20480;-77
2024/03/02 01:57:52;;;;;;;6.85;4.15;;;11.40;87.20;;;;;;5112691;28;20038;-77
2024/03/02 02:00:21;;;;;;;7.00;4.07;;;11.50;87.30;;;;;;5113345;28;20020;-76
2024/03/02 02:02:48;;;;;;;6.88;4.57;;;11.50;87.30;;;;;;5114795;28;20073;-76
2024/03/02 02:05:14;;;;;;;6.47;3.90;;;11.50;87.30;;;;;;5114198;28;20463;-76
2024/03/02 02:07:41;;;;;;;6.60;4.25;;;11.50;87.30;;;;;;5114580;28;20043;-77
2024/03/02 02:10:07;;;;;;;7.07;4.18;;;11.50;87.30;;;;;;5114364;28;20024;-76
2024/03/02 02:12:32;;;;;;;6.30;4.00;;;11.40;87.20;;;;;;5112230;28;20479;-76
2024/03/02 02:14:58;;;;;;;6.43;3.88;;;11.40;87.30;;;;;;5112897;28;20031;-76
2024/03/02 02:17:24;;;;;;;6.45;4.03;;;11.40;87.20;;;;;;5112510;28;20024;-76
2024/03/02 02:19:49;;;;;;;6.72;4.28;;;11.40;87.20;;;;;;5112191;28;20110;-76
2024/03/02 02:22:15;;;;;;;6.35;4.18;;;11.40;87.20;;;;;;5113646;28;20027;-76
2024/03/02 02:24:43;;;;;;;6.97;4.30;;;11.40;87.30;;;;;;5113904;28;20047;-77
2024/03/02 02:27:09;;;;;;;6.38;3.97;;;11.40;87.20;;;;;;5113328;28;20031;-76
2024/03/02 02:29:35;;;;;;;6.40;4.28;;;11.40;87.20;;;;;;5112889;28;20076;-76
2024/03/02 02:32:01;;;;;;;6.85;4.57;;;11.40;87.20;;;;;;5112618;28;20392;-76
2024/03/02 02:34:26;;;;;;;8.23;4.60;;;11.40;87.20;;;;;;5114751;28;20042;-76
2024/03/02 02:36:53;;;;;;;6.60;4.18;;;11.50;87.30;;;;;;5112300;28;20751;-77
2024/03/02 02:39:22;;;;;;;6.43;4.05;;;11.40;87.20;;;;;;5112518;28;20076;-76
2024/03/02 02:41:47;;;;;;;6.80;4.20;;;11.50;87.30;;;;;;5111836;28;20027;-77
2024/03/02 02:44:13;;;;;;;6.80;4.07;;;11.40;87.20;;;;;;5113430;28;20019;-76
2024/03/02 02:46:39;;;;;;;6.40;3.92;;;11.40;87.20;;;;;;5111781;28;20024;-76
2024/03/02 02:49:05;;;;;;;6.07;3.78;;;11.40;87.30;;;;;;5111733;28;20037;-76
2024/03/02 02:51:31;;;;;;;6.45;4.10;;;11.40;87.30;;;;;;5111826;28;20023;-75
2024/03/02 02:53:56;;;;;;;7.30;4.45;;;11.50;87.30;;;;;;5111655;28;20024;-76
2024/03/02 02:56:22;;;;;;;7.00;4.30;;;11.40;87.20;;;;;;5112898;28;20028;-76
2024/03/02 02:58:47;;;;;;;6.68;3.90;;;11.40;87.20;;;;;;5110969;28;20027;-75
2024/03/02 03:01:13;;;;;;;6.07;3.88;;;11.40;87.30;;;;;;5111549;28;20080;-77
2024/03/02 03:03:38;;;;;;;6.43;3.80;;;11.40;87.30;;;;;;5112700;27;20446;-76
2024/03/02 03:06:04;;;;;;;6.30;3.90;;;11.40;87.20;;;;;;5111677;28;20099;-76
2024/03/02 03:08:29;;;;;;;6.40;4.20;;;11.40;87.20;;;;;;5111293;28;20449;-77
2024/03/02 03:10:55;;;;;;;6.22;3.97;;;11.50;87.30;;;;;;5112802;28;20480;-76
2024/03/02 03:13:20;;;;;;;6.97;4.20;;;11.50;87.30;;;;;;5111297;28;20027;-76
2024/03/02 03:15:46;;;;;;;6.25;3.95;;;11.40;87.80;;;;;;5111002;28;20502;-76
2024/03/02 03:18:11;;;;;;;7.22;4.30;;;11.40;87.30;;;;;;5112403;28;20023;-77
2024/03/02 03:20:37;;;;;;;7.10;4.50;;;11.40;87.80;;;;;;5112600;28;20087;-76
2024/03/02 03:23:03;;;;;;;6.82;4.50;;;11.40;87.30;;;;;;5111174;28;20476;-76
2024/03/02 03:25:29;;;;;;;6.60;4.10;;;11.40;87.30;;;;;;5111277;28;20102;-76
2024/03/02 03:27:55;;;;;;;6.93;4.20;;;11.50;87.40;;;;;;5112656;28;20051;-76
2024/03/02 03:30:20;;;;;;;6.25;4.13;;;11.40;87.30;;;;;;5111357;28;20046;-77
2024/03/02 03:32:47;;;;;;;6.90;4.45;;;11.40;87.30;;;;;;5112057;28;20035;-76
2024/03/02 03:35:14;;;;;;;6.53;4.30;;;11.40;87.20;;;;;;5110702;28;20027;-76
2024/03/02 03:37:40;;;;;;;7.38;4.47;;;11.40;87.30;;;;;;5110886;28;20492;-77
2024/03/02 03:40:09;;;;;;;6.30;3.88;;;11.40;87.30;;;;;;5110830;28;20054;-76
2024/03/02 03:42:35;;;;;;;6.38;4.07;;;11.40;87.30;;;;;;5110846;28;20028;-77
2024/03/02 03:45:01;;;;;;;7.22;4.10;;;11.40;87.30;;;;;;5112268;28;20016;-76
2024/03/02 03:47:26;;;;;;;7.07;4.40;;;11.50;87.40;;;;;;5110586;28;20027;-76
2024/03/02 03:49:52;;;;;;;6.43;3.90;;;11.40;87.30;;;;;;5107835;28;20030;-76
2024/03/02 03:52:17;;;;;;;6.35;4.18;;;11.40;87.30;;;;;;5109966;28;20027;-77
2024/03/02 03:54:44;;;;;;;7.43;4.63;;;11.40;87.30;;;;;;5103160;28;20050;-76
2024/03/02 03:57:10;;;;;;;6.00;4.05;;;11.40;87.30;;;;;;5111861;28;20435;-77
2024/03/02 03:59:37;;;;;;;7.05;4.68;;;11.40;87.30;;;;;;5111670;28;20019;-76
2024/03/02 04:02:03;;;;;;;6.55;4.20;;;11.40;87.30;;;;;;5111760;28;20024;-76
2024/03/02 04:04:28;;;;;;;6.60;4.25;;;11.40;87.30;;;;;;5111828;28;20095;-77
2024/03/02 04:06:54;;;;;;;6.85;4.25;;;11.40;87.30;;;;;;5111695;28;20102;-77
2024/03/02 04:09:19;;;;;;;7.43;4.40;;;11.40;87.30;;;;;;5111568;28;20103;-77
2024/03/02 04:11:45;;;;;;;6.82;4.50;;;11.40;87.30;;;;;;5111251;28;20024;-77
2024/03/02 04:14:12;;;;;;;7.00;4.40;;;11.40;87.30;;;;;;5110186;28;20498;-76
2024/03/02 04:16:37;;;;;;;6.70;4.07;;;11.40;87.30;;;;;;5110373;28;20031;-76
2024/03/02 04:19:03;;;;;;;7.07;4.53;;;11.40;87.30;;;;;;5110143;28;20499;-76
2024/03/02 04:21:29;;;;;;;6.30;4.03;;;11.30;87.20;;;;;;5111591;28;20023;-76
2024/03/02 04:23:58;;;;;;;6.70;3.92;;;11.40;87.30;;;;;;5110305;28;20020;-76
2024/03/02 04:26:25;;;;;;;6.78;4.30;;;11.40;87.30;;;;;;5110409;28;20026;-76
2024/03/02 04:28:50;;;;;;;6.50;4.07;;;11.40;87.30;;;;;;5110293;28;20031;-76
2024/03/02 04:31:16;;;;;;;6.47;3.90;;;11.40;87.30;;;;;;5111238;28;20039;-76
2024/03/02 04:33:42;;;;;;;7.00;4.18;;;11.40;87.30;;;;;;5111122;28;20448;-75
2024/03/02 04:36:09;;;;;;;6.72;4.20;;;11.40;87.20;;;;;;5110030;28;20032;-76
2024/03/02 04:38:35;;;;;;;7.25;4.60;;;11.40;87.30;;;;;;5110126;28;20384;-76
2024/03/02 04:41:00;;;;;;;7.15;4.35;;;11.40;87.30;;;;;;5111385;28;20026;-77
2024/03/02 04:43:26;;;;;;;6.55;4.30;;;11.40;87.20;;;;;;5110114;28;20020;-77
2024/03/02 04:45:51;;;;;;;6.47;4.30;;;11.40;87.20;;;;;;5110349;28;20020;-77
2024/03/02 04:48:17;;;;;;;7.00;4.10;;;11.40;87.30;;;;;;5110105;28;20031;-77
2024/03/02 04:50:42;;;;;;;6.65;4.30;;;11.40;87.30;;;;;;5110107;28;20035;-77
2024/03/02 04:53:08;;;;;;;6.97;4.60;;;11.40;87.20;;;;;;5110122;28;20544;-77
2024/03/02 04:58:05;;;;;;;6.85;4.60;;;11.40;87.30;;;;;;5111399;28;20110;-77
2024/03/02 05:00:30;;;;;;;6.97;4.50;;;11.40;87.30;;;;;;5109841;28;20111;-76
2024/03/02 05:02:56;;;;;;;6.95;4.30;;;11.40;87.30;;;;;;5109773;28;20016;-77
2024/03/02 05:05:21;;;;;;;6.60;4.20;;;11.40;87.30;;;;;;5111126;28;20028;-76
2024/03/02 05:07:47;;;;;;;7.88;4.88;;;11.40;87.30;;;;;;5111030;28;20369;-77
2024/03/02 05:10:12;;;;;;;6.78;4.20;;;11.40;87.30;;;;;;5109707;28;20030;-76
2024/03/02 05:12:56;;;;;;;7.15;4.63;;;11.40;87.30;;;;;;5110796;28;20380;-79
2024/03/02 05:15:22;;;;;;;6.85;4.38;;;11.40;87.30;;;;;;5109739;28;20058;-76
2024/03/02 05:17:47;;;;;;;6.40;4.18;;;11.40;87.30;;;;;;5109700;28;20444;-76
2024/03/02 05:20:13;;;;;;;6.70;4.35;;;11.40;87.30;;;;;;5109841;28;20028;-77
2024/03/02 05:22:39;;;;;;;7.65;4.90;;;11.40;87.30;;;;;;5110308;28;20050;-76
2024/03/02 05:25:05;;;;;;;6.75;4.35;;;11.40;87.30;;;;;;5113931;28;20518;-76
2024/03/02 05:27:32;;;;;;;7.50;4.78;;;11.40;87.30;;;;;;5114578;28;20031;-77
2024/03/02 05:29:58;;;;;;;7.38;5.03;;;11.40;87.30;;;;;;5113559;28;20503;-77
2024/03/02 05:32:23;;;;;;;6.82;4.38;;;11.40;87.30;;;;;;5113018;28;20136;-76
2024/03/02 05:34:50;;;;;;;7.30;4.65;;;11.40;87.20;;;;;;5113439;28;20028;-77
2024/03/02 05:37:16;;;;;;;7.50;4.65;;;11.40;87.20;;;;;;5113198;28;20028;-76
2024/03/02 05:39:43;;;;;;;6.88;4.60;;;11.40;87.30;;;;;;5113010;28;20027;-77
2024/03/02 05:42:08;;;;;;;6.70;4.53;;;11.40;87.20;;;;;;5112957;28;20027;-77
2024/03/02 05:44:35;;;;;;;7.88;4.72;;;11.40;87.20;;;;;;5114711;28;20029;-76
2024/03/02 05:47:00;;;;;;;7.38;4.78;;;11.40;87.20;;;;;;5113176;28;20028;-77
2024/03/02 05:49:25;;;;;;;7.47;4.88;;;11.40;87.20;;;;;;5113026;28;20023;-76
2024/03/02 05:51:51;;;;;;;6.90;4.63;;;11.40;87.20;;;;;;5111368;28;20089;-76
2024/03/02 05:54:16;;;;;;;7.57;4.88;;;11.40;87.20;;;;;;5105164;28;20022;-76
2024/03/02 05:56:42;;;;;;;7.53;4.97;;;11.40;87.10;;;;;;5092404;28;20024;-76
2024/03/02 05:59:13;;;;;;;7.20;4.82;;;11.40;87.20;;;;;;5092496;28;20099;-76
2024/03/02 06:01:40;;;;;;;6.65;4.28;;;11.40;87.10;;;;;;5092439;28;20028;-76
2024/03/02 06:04:05;;;;;;;7.15;4.90;;;11.40;87.20;;;;;;5093520;28;20038;-77
2024/03/02 06:06:33;;;;;;;6.95;4.57;;;11.40;87.20;;;;;;5108333;28;20114;-76
2024/03/02 06:09:08;;;;;;;7.13;4.57;;;11.40;87.10;;;;;;5112637;28;20040;-77
2024/03/02 06:11:38;;;;;;;7.90;4.90;;;11.40;87.10;;;;;;5106106;28;20027;-78
2024/03/02 06:14:08;;;;;;;7.40;4.75;;;11.40;87.10;;;;;;5107354;28;20388;-78
2024/03/02 06:16:33;;;;;;;8.07;5.40;;;11.40;87.10;;;;;;5107445;28;20031;-77
2024/03/02 06:18:59;;;;;;;7.13;4.57;;;11.40;87.00;;;;;;5107176;28;20027;-76
2024/03/02 06:21:26;;;;;;;8.00;5.30;;;11.40;87.10;;;;;;5107925;28;20027;-79
2024/03/02 06:23:51;;;;;;;7.35;4.90;;;11.40;87.50;;;;;;5107592;28;20609;-78
2024/03/02 06:26:17;;;;;;;7.10;4.78;;;11.40;87.10;;;;;;5107767;28;20070;-78
2024/03/02 06:28:43;;;;;;;7.38;5.13;;;11.40;87.00;;;;;;5106632;28;20051;-77
2024/03/02 06:31:08;;;;;;;7.40;4.78;;;11.40;87.00;;;;;;5109128;28;20147;-78
2024/03/02 06:33:34;;;;;;;7.38;4.80;;;11.40;87.00;;;;;;5108169;28;20293;-78
2024/03/02 06:36:00;;;;;;;8.05;4.70;;;11.40;86.90;;;;;;5106556;28;20518;-76
2024/03/02 06:38:25;;;;;;;7.72;4.70;;;11.40;86.90;;;;;;5107665;28;20024;-77
2024/03/02 06:40:51;;;;;;;7.45;4.97;;;11.40;86.90;;;;;;5105763;28;20102;-77
2024/03/02 06:43:16;;;;;;;6.90;4.60;;;11.40;86.90;;;;;;5106877;28;20038;-77
2024/03/02 06:45:42;;;;;;;6.82;4.78;;;11.50;86.90;;;;;;5107068;28;20066;-77
2024/03/02 06:48:07;;;;;;;7.18;4.60;;;11.40;86.80;;;;;;5108359;28;20023;-77
2024/03/02 06:50:33;;;;;;;6.90;4.80;;;11.40;86.80;;;;;;5107222;28;20032;-76
2024/03/02 06:52:58;;;;;;;6.95;4.65;;;11.40;86.80;;;;;;5108502;28;20034;-76
2024/03/02 06:55:24;;;;;;;7.55;5.07;;;11.40;86.90;;;;;;5108063;28;20095;-77
2024/03/02 06:57:50;;;;;;;7.93;4.72;;;11.50;86.90;;;;;;5107912;28;20042;-76
2024/03/02 07:00:17;;;;;;;7.88;5.35;;;11.40;86.80;;;;;;5108001;28;20065;-77
2024/03/02 07:02:46;;;;;;;7.38;4.95;;;11.40;86.90;;;;;;5108277;28;20016;-76
2024/03/02 07:05:12;;;;;;;8.27;5.25;;;11.40;86.90;;;;;;5105863;28;20046;-77
2024/03/02 07:07:38;;;;;;;8.07;5.30;;;11.40;86.80;;;;;;5106136;28;20035;-76
2024/03/02 07:10:07;;;;;;;7.78;5.20;;;11.50;86.90;;;;;;5106966;28;20474;-78
2024/03/02 07:12:33;;;;;;;7.03;5.00;;;11.50;86.90;;;;;;5106736;27;20028;-77
2024/03/02 07:17:33;;;;;;;7.75;5.32;;;11.40;86.90;;;;;;5107332;28;20034;-78
2024/03/02 07:19:59;;;;;;;7.63;5.05;;;11.50;86.90;;;;;;5106255;28;20519;-75
2024/03/02 07:22:24;;;;;;;8.18;5.30;;;11.40;86.80;;;;;;5105868;28;20397;-75
2024/03/02 07:24:50;;;;;;;7.38;5.22;;;11.50;86.80;;;;;;5105938;28;20022;-76
2024/03/02 07:27:16;;;;;;;8.70;5.10;;;11.50;86.80;;;;;;5105612;28;20023;-76
2024/03/02 07:29:43;;;;;;;7.70;5.15;;;11.50;86.80;;;;;;5105680;28;20038;-77
2024/03/02 07:32:09;;;;;;;7.88;5.00;;;11.50;86.70;;;;;;5105617;28;20046;-76
2024/03/02 07:34:35;;;;;;;7.90;5.57;;;11.50;86.60;;;;;;5105536;28;20028;-78
2024/03/02 07:37:01;;;;;;;6.72;4.50;;;11.50;86.60;;;;;;5105458;28;20032;-77
2024/03/02 07:39:27;;;;;;;7.72;5.28;;;11.50;86.60;;;;;;5105530;28;20038;-77
2024/03/02 07:41:52;;;;;;;7.50;5.15;;;11.60;86.50;;;;;;5105106;28;20019;-76
2024/03/02 07:44:19;;;;;;;7.97;5.40;;;11.60;86.40;;;;;;5105673;28;20032;-80
2024/03/02 07:46:51;;;;;;;7.90;5.07;;;11.60;86.30;;;;;;5106003;28;20056;-75
2024/03/02 07:49:17;;;;;;;7.85;5.05;;;11.60;86.20;;;;;;5105352;28;20027;-77
2024/03/02 07:51:43;;;;;;;9.20;5.20;;;11.70;86.10;;;;;;5105479;28;20671;-77
2024/03/02 07:54:09;;;;;;;7.78;4.72;;;11.70;85.80;;;;;;5107083;28;20027;-79
2024/03/02 07:56:35;;;;;;;8.18;5.35;;;11.80;85.50;;;;;;5105351;28;20035;-78
2024/03/02 07:59:04;;;;;;;9.05;5.57;;;11.90;85.30;;;;;;5105248;28;20030;-76
2024/03/02 08:01:33;;;;;;;8.07;5.65;;;12.00;85.20;;;;;;5105166;28;20103;-77
2024/03/02 08:04:03;;;;;;;7.57;5.22;;;12.00;85.00;;;;;;5106659;28;20028;-77
2024/03/02 08:06:29;;;;;;;7.63;5.30;;;12.10;84.80;;;;;;5105571;28;20570;-77
2024/03/02 08:08:55;;;;;;;8.38;5.35;;;12.10;84.80;;;;;;5105927;28;20168;-78
2024/03/02 08:11:21;;;;;;;8.52;5.32;;;12.20;84.90;;;;;;5107050;28;20040;-77
2024/03/02 08:13:47;;;;;;;7.40;4.90;;;12.20;84.90;;;;;;5105331;28;20122;-75
2024/03/02 08:16:19;;;;;;;7.50;5.28;;;12.20;84.90;;;;;;5105825;28;20806;-77
2024/03/02 08:18:45;;;;;;;8.20;5.35;;;12.20;84.70;;;;;;5105416;28;20034;-78
2024/03/02 08:21:12;;;;;;;7.82;5.28;;;12.30;84.70;;;;;;5105407;28;20038;-77
2024/03/02 08:23:37;;;;;;;7.82;5.53;;;12.30;84.60;;;;;;5101761;28;20020;-78
2024/03/02 08:26:04;;;;;;;7.93;5.57;;;12.40;84.60;;;;;;5103923;28;20072;-76
2024/03/02 08:28:29;;;;;;;7.72;5.13;;;12.30;84.40;;;;;;5105438;28;20032;-77
2024/03/02 08:30:55;;;;;;;7.47;5.20;;;12.40;84.30;;;;;;5105623;28;20035;-76
2024/03/02 08:33:20;;;;;;;8.10;5.38;;;12.40;84.30;;;;;;5105383;28;20422;-76
2024/03/02 08:35:46;;;;;;;7.63;5.15;;;12.40;84.20;;;;;;5104559;28;20034;-76
2024/03/02 08:38:12;;;;;;;8.18;5.40;;;12.50;84.20;;;;;;5105683;28;20053;-76
2024/03/02 08:40:37;;;;;;;7.60;5.10;;;12.50;84.10;;;;;;5103894;28;20024;-75
2024/03/02 08:43:03;;;;;;;7.38;5.03;;;12.60;84.00;;;;;;5103613;28;20506;-78
2024/03/02 08:45:29;;;;;;;7.68;5.20;;;12.60;84.00;;;;;;5103476;28;20051;-77
2024/03/02 08:47:54;;;;;;;7.30;5.20;;;12.60;83.90;;;;;;5105824;28;20015;-78
2024/03/02 08:50:20;;;;;;;8.05;5.38;;;12.60;83.80;;;;;;5105679;28;20024;-78
2024/03/02 08:52:45;;;;;;;8.30;5.63;;;12.60;83.70;;;;;;5103657;28;20035;-80
2024/03/02 08:55:11;;;;;;;9.23;5.32;;;12.60;83.70;;;;;;5105676;28;20097;-76
2024/03/02 08:57:36;;;;;;;8.73;5.60;;;12.70;83.70;;;;;;5104993;28;20027;-76
2024/03/02 09:00:02;;;;;;;7.60;5.25;;;12.70;83.60;;;;;;5110033;28;20045;-76
2024/03/02 09:02:28;;;;;;;7.95;5.30;;;12.80;83.50;;;;;;5104384;28;20151;-76
2024/03/02 09:04:53;;;;;;;7.63;5.13;;;12.80;83.40;;;;;;5103793;28;20484;-77
2024/03/02 09:07:19;;;;;;;7.80;5.20;;;12.80;83.40;;;;;;5109645;28;20023;-77
2024/03/02 09:30:21;;;;;;;7.43;5.13;;;12.90;83.10;;;;;;5008542;28;20329;-79
2024/03/02 09:32:47;;;;;;;7.43;4.88;;;12.90;83.20;;;;;;4992583;28;20100;-80
2024/03/02 09:35:12;;;;;;;7.32;5.00;;;12.90;83.30;;;;;;4993867;28;20121;-77
2024/03/02 09:37:38;;;;;;;7.75;5.20;;;12.80;83.10;;;;;;5013805;28;20045;-80
2024/03/02 09:40:04;;;;;;;7.97;5.20;;;12.90;83.30;;;;;;4996362;28;20085;-79
2024/03/02 09:42:30;;;;;;;7.80;5.13;;;12.80;83.20;;;;;;4996586;28;20037;-80
2024/03/02 09:44:56;;;;;;;7.68;5.30;;;12.80;83.20;;;;;;4994699;28;20029;-78
2024/03/02 09:47:22;;;;;;;7.65;4.93;;;12.80;83.30;;;;;;4995758;28;20752;-80
2024/03/02 09:49:48;;;;;;;7.15;4.65;;;12.80;83.40;;;;;;4994930;28;20030;-77
2024/03/02 09:52:14;;;;;;;8.15;5.05;;;12.90;83.30;;;;;;4995163;28;20508;-77
2024/03/02 09:54:40;;;;;;;8.13;4.78;;;12.90;83.20;;;;;;4995747;28;20506;-78
2024/03/02 09:57:05;;;;;;;8.38;4.93;;;12.90;83.20;;;;;;4995320;28;20092;-79
2024/03/02 09:59:31;;;;;;;8.68;4.90;;;13.00;83.20;;;;;;4994750;28;20048;-79
2024/03/02 10:02:01;;;;;;;8.40;5.18;;;12.90;83.10;;;;;;4994541;28;20026;-78
2024/03/02 10:04:31;;;;;;;8.07;5.07;;;13.00;83.00;;;;;;4995469;28;20038;-79
2024/03/02 10:07:10;;;;;;;10.75;4.65;;;13.00;83.00;;;;;;4994997;28;20048;-78
2024/03/02 10:09:36;;;;;;;7.15;4.70;;;13.00;83.10;;;;;;5011924;28;20084;-78
2024/03/02 10:12:05;;;;;;;7.60;4.82;;;13.00;83.10;;;;;;4994417;28;20034;-79
2024/03/02 10:14:31;;;;;;;8.32;4.50;;;13.00;83.20;;;;;;4996015;28;20038;-77
2024/03/02 10:17:12;;;;;;;8.48;5.00;;;13.00;83.30;;;;;;5013569;28;20777;-78
2024/03/02 10:19:38;;;;;;;8.20;4.95;;;13.00;83.50;;;;;;4995381;28;20021;-78
2024/03/02 10:22:08;;;;;;;9.30;4.72;;;12.90;83.60;;;;;;5012784;28;20053;-80
2024/03/02 10:24:39;;;;;;;7.38;4.47;;;12.90;83.50;;;;;;4995151;28;20422;-79
2024/03/02 10:27:22;;;;;;;7.25;4.43;;;13.00;83.50;;;;;;4994820;28;20041;-78
2024/03/02 10:29:48;;;;;;;7.60;4.50;;;12.90;83.40;;;;;;4994863;28;20498;-78
2024/03/02 10:32:15;;;;;;;7.82;4.45;;;13.00;83.40;;;;;;5012350;28;20032;-78
2024/03/02 10:34:44;;;;;;;7.22;4.47;;;13.00;83.30;;;;;;4994961;28;20660;-78
2024/03/02 10:37:11;;;;;;;7.20;4.90;;;13.10;83.30;;;;;;5012280;28;20037;-78
2024/03/02 10:39:39;;;;;;;7.63;4.13;;;13.10;83.10;;;;;;5011948;28;20033;-79
2024/03/02 10:42:06;;;;;;;7.47;4.20;;;13.10;82.90;;;;;;4994750;28;20018;-79
2024/03/02 10:44:32;;;;;;;7.63;4.72;;;13.20;82.90;;;;;;4994599;28;20071;-78
2024/03/02 10:47:02;;;;;;;7.20;4.43;;;13.20;82.90;;;;;;4994232;28;20053;-78
2024/03/02 10:49:29;;;;;;;7.57;4.80;;;13.20;82.80;;;;;;4994304;28;20570;-77
2024/03/02 10:51:55;;;;;;;7.32;4.10;;;13.20;82.70;;;;;;4994309;28;20033;-79
2024/03/02 10:54:26;;;;;;;8.63;4.53;;;13.30;82.70;;;;;;4993208;28;20026;-77
2024/03/02 10:56:53;;;;;;;7.17;4.67;;;13.30;82.60;;;;;;5012054;28;20478;-77
2024/03/02 10:59:33;;;;;;;6.85;4.25;;;13.30;82.60;;;;;;4993886;28;20289;-78
2024/03/02 11:02:00;;;;;;;6.50;4.15;;;13.30;82.50;;;;;;4994067;28;20050;-78
2024/03/02 11:04:28;;;;;;;7.43;4.60;;;13.30;82.50;;;;;;4993883;28;20067;-79
2024/03/02 11:07:04;;;;;;;7.13;4.38;;;13.30;82.40;;;;;;4994109;28;20030;-77
2024/03/02 11:09:32;;;;;;;6.80;4.32;;;13.40;82.40;;;;;;5011809;28;20387;-77
2024/03/02 11:12:21;;;;;;;6.95;4.45;;;13.40;82.30;;;;;;4993402;28;20034;-78
2024/03/02 11:14:47;;;;;;;6.85;4.18;;;13.40;82.30;;;;;;5011485;28;20032;-77
2024/03/02 11:17:18;;;;;;;7.00;4.20;;;13.40;82.30;;;;;;4994129;28;20030;-78
2024/03/02 11:19:45;;;;;;;6.40;3.90;;;13.40;82.20;;;;;;4993688;28;20026;-78
2024/03/02 11:22:12;;;;;;;7.60;4.03;;;13.30;82.20;;;;;;4992653;28;20030;-79
2024/03/02 11:24:37;;;;;;;6.30;3.97;;;13.40;82.20;;;;;;4993450;28;20513;-78
2024/03/02 11:27:11;;;;;;;6.65;3.85;;;13.40;82.10;;;;;;4993803;28;20037;-78
2024/03/02 11:29:36;;;;;;;6.93;4.03;;;13.40;82.10;;;;;;4993854;28;20037;-78
2024/03/02 11:32:06;;;;;;;7.10;4.35;;;13.50;82.10;;;;;;5010558;28;20900;-77
2024/03/02 11:34:33;;;;;;;6.25;3.80;;;13.40;82.10;;;;;;4993600;28;20030;-77
2024/03/02 11:36:59;;;;;;;6.38;3.90;;;13.50;82.20;;;;;;4993980;28;20026;-78
2024/03/02 11:39:26;;;;;;;6.28;3.88;;;13.50;82.10;;;;;;5011801;28;20087;-77
2024/03/02 11:41:51;;;;;;;6.97;4.15;;;13.40;82.10;;;;;;5011794;28;20105;-78
2024/03/02 11:44:17;;;;;;;6.22;4.03;;;13.50;82.00;;;;;;4994003;28;20094;-78
2024/03/02 11:46:45;;;;;;;7.28;3.92;;;13.50;82.10;;;;;;5012091;28;20033;-80
2024/03/02 11:49:15;;;;;;;6.32;3.72;;;13.50;82.10;;;;;;5012287;28;20034;-79
2024/03/02 11:52:00;;;;;;;6.70;3.88;;;13.50;82.00;;;;;;4993202;28;20141;-78
2024/03/02 11:54:29;;;;;;;6.03;3.80;;;13.50;82.00;;;;;;4993587;28;20152;-79
2024/03/02 11:56:55;;;;;;;6.43;3.90;;;13.50;82.00;;;;;;5011655;28;20483;-80
2024/03/02 11:59:22;;;;;;;6.10;3.53;;;13.50;82.00;;;;;;5010335;28;20030;-77
2024/03/02 12:01:48;;;;;;;6.40;3.63;;;13.50;82.00;;;;;;4993530;28;20045;-78
2024/03/02 12:04:14;;;;;;;5.95;3.70;;;13.50;82.00;;;;;;4993357;28;20045;-78
2024/03/02 12:06:39;;;;;;;6.10;3.92;;;13.50;82.00;;;;;;4993800;28;20398;-78
2024/03/02 12:09:05;;;;;;;8.52;4.13;;;13.50;82.00;;;;;;4993821;28;20129;-78
2024/03/02 12:11:30;;;;;;;10.50;3.85;;;13.50;82.00;;;;;;5011317;28;20037;-77
2024/03/02 12:13:57;;;;;;;7.85;3.88;;;13.50;82.00;;;;;;4993434;28;20049;-78
2024/03/02 12:16:26;;;;;;;6.82;4.18;;;13.50;82.00;;;;;;5011678;28;20026;-79
2024/03/02 12:18:51;;;;;;;6.75;3.30;;;13.50;82.60;;;;;;4994034;28;20029;-79
2024/03/02 12:21:17;;;;;;;9.13;3.88;;;13.40;82.10;;;;;;4993601;28;20022;-78
2024/03/02 12:23:42;;;;;;;6.93;3.47;;;13.50;82.10;;;;;;5010722;28;20026;-77
2024/03/02 12:26:08;;;;;;;7.45;4.00;;;13.50;82.20;;;;;;4993340;28;20124;-77
2024/03/02 12:28:34;;;;;;;7.15;3.50;;;13.50;82.20;;;;;;4992887;28;20044;-77
2024/03/02 12:31:00;;;;;;;7.60;3.30;;;13.50;82.30;;;;;;4993527;28;20034;-78
2024/03/02 12:33:27;;;;;;;6.85;3.40;;;13.40;82.30;;;;;;4993127;28;20117;-79
2024/03/02 12:35:52;;;;;;;6.78;3.55;;;13.40;82.40;;;;;;5011061;28;20037;-78
2024/03/02 12:38:19;;;;;;;5.65;3.25;;;13.40;82.50;;;;;;4993284;28;20022;-78
2024/03/02 12:40:44;;;;;;;6.32;3.45;;;13.40;82.50;;;;;;4992780;28;20026;-79
2024/03/02 12:43:10;;;;;;;6.50;3.65;;;13.40;82.50;;;;;;4993018;28;20829;-77
2024/03/02 12:45:36;;;;;;;5.80;3.50;;;13.40;82.60;;;;;;5011124;28;20022;-78
2024/03/02 12:48:04;;;;;;;7.22;3.33;;;13.40;82.60;;;;;;4992977;28;20441;-79
2024/03/02 12:50:29;;;;;;;6.72;3.50;;;13.40;82.70;;;;;;4992847;28;20030;-79
2024/03/02 12:52:55;;;;;;;6.05;3.35;;;13.30;82.70;;;;;;5010803;28;20038;-78
2024/03/02 12:55:22;;;;;;;7.43;3.50;;;13.40;82.80;;;;;;5006558;28;20030;-77
2024/03/02 12:57:50;;;;;;;8.05;3.33;;;13.40;82.80;;;;;;5009305;28;20062;-77
2024/03/02 13:00:19;;;;;;;5.78;3.20;;;13.40;82.80;;;;;;4991953;28;20104;-79
2024/03/02 13:02:46;;;;;;;5.90;3.40;;;13.40;82.80;;;;;;4992345;28;20025;-78
2024/03/02 13:05:12;;;;;;;6.30;3.50;;;13.40;82.80;;;;;;5009128;28;20088;-78
2024/03/02 13:07:38;;;;;;;6.60;3.58;;;13.30;82.80;;;;;;4991335;28;20026;-77